createdAt,value
2018-05-23T00:01:04.587Z,14.78
2018-05-23T00:03:32.139Z,14.81
2018-05-23T00:05:59.681Z,14.84
2018-05-23T00:08:27.273Z,14.78
2018-05-23T00:10:54.817Z,14.82
2018-05-23T00:13:22.389Z,14.82
2018-05-23T00:15:50.061Z,14.80
2018-05-23T00:18:17.609Z,14.82
2018-05-23T00:20:45.152Z,14.82
2018-05-23T00:23:12.865Z,14.80
2018-05-23T00:25:40.415Z,14.78
2018-05-23T00:28:07.952Z,14.78
2018-05-23T00:30:35.544Z,14.79
2018-05-23T00:33:03.096Z,14.79
2018-05-23T00:35:30.680Z,14.73
2018-05-23T00:37:58.305Z,14.73
2018-05-23T00:40:25.866Z,14.67
2018-05-23T00:42:53.415Z,14.66
2018-05-23T00:45:21.170Z,14.70
2018-05-23T00:47:48.724Z,14.68
2018-05-23T00:50:16.285Z,14.65
2018-05-23T00:52:43.904Z,14.63
2018-05-23T00:55:23.065Z,14.63
2018-05-23T00:57:50.796Z,14.60
2018-05-23T01:00:18.342Z,14.57
2018-05-23T01:02:45.910Z,14.53
2018-05-23T01:05:13.631Z,14.49
2018-05-23T01:07:41.181Z,14.46
2018-05-23T01:10:08.749Z,14.44
2018-05-23T01:12:37.364Z,14.28
2018-05-23T01:15:04.939Z,14.35
2018-05-23T01:17:32.473Z,14.38
2018-05-23T01:20:00.079Z,14.35
2018-05-23T01:22:27.667Z,14.34
2018-05-23T01:24:55.217Z,14.31
2018-05-23T01:27:22.946Z,14.30
2018-05-23T01:29:50.493Z,14.23
2018-05-23T01:32:18.049Z,14.20
2018-05-23T01:34:45.789Z,14.15
2018-05-23T01:37:13.324Z,14.10
2018-05-23T01:39:40.856Z,14.09
2018-05-23T01:42:08.459Z,14.07
2018-05-23T01:44:36.015Z,14.07
2018-05-23T01:47:03.577Z,14.04
2018-05-23T01:49:31.161Z,14.06
2018-05-23T01:51:58.712Z,14.05
2018-05-23T01:54:26.263Z,14.03
2018-05-23T01:56:53.867Z,14.01
2018-05-23T01:59:21.420Z,13.98
2018-05-23T02:01:48.991Z,13.96
2018-05-23T02:04:16.755Z,13.95
2018-05-23T02:06:44.328Z,13.94
2018-05-23T02:09:11.875Z,13.94
2018-05-23T02:11:39.461Z,13.93
2018-05-23T02:14:07.012Z,13.88
2018-05-23T02:16:34.564Z,13.87
2018-05-23T02:19:02.329Z,13.86
2018-05-23T02:21:29.868Z,13.81
2018-05-23T02:23:57.418Z,13.79
2018-05-23T02:26:25.015Z,13.79
2018-05-23T02:28:52.571Z,13.77
2018-05-23T02:31:20.142Z,13.77
2018-05-23T02:33:47.836Z,13.73
2018-05-23T02:36:15.395Z,13.72
2018-05-23T02:38:42.970Z,13.75
2018-05-23T02:41:10.569Z,13.72
2018-05-23T02:43:38.165Z,13.70
2018-05-23T02:46:05.757Z,13.72
2018-05-23T02:48:33.673Z,13.73
2018-05-23T02:51:01.254Z,13.71
2018-05-23T02:53:28.808Z,13.71
2018-05-23T02:55:56.431Z,13.68
2018-05-23T02:58:23.977Z,13.67
2018-05-23T03:00:51.531Z,13.70
2018-05-23T03:03:19.109Z,13.72
2018-05-23T03:05:46.656Z,13.81
2018-05-23T03:08:14.203Z,13.90
2018-05-23T03:10:42.545Z,14.08
2018-05-23T03:13:10.112Z,14.25
2018-05-23T03:15:37.664Z,14.45
2018-05-23T03:18:05.267Z,14.71
2018-05-23T03:20:32.814Z,15.15
2018-05-23T03:23:00.354Z,15.75
2018-05-23T03:25:28.259Z,16.42
2018-05-23T03:27:55.839Z,17.13
2018-05-23T03:30:23.408Z,17.88
2018-05-23T03:32:50.999Z,18.74
2018-05-23T03:35:18.559Z,19.65
2018-05-23T03:37:46.125Z,20.57
2018-05-23T03:40:13.709Z,21.25
2018-05-23T03:42:41.256Z,22.06
2018-05-23T03:45:08.817Z,22.95
2018-05-23T03:47:36.517Z,23.83
2018-05-23T03:50:04.970Z,24.55
2018-05-23T03:52:33.300Z,25.36
2018-05-23T03:55:01.035Z,26.20
2018-05-23T03:57:28.576Z,26.55
2018-05-23T04:00:07.801Z,26.89
2018-05-23T04:02:46.968Z,27.65
2018-05-23T04:08:22.460Z,29.71
2018-05-23T04:10:50.041Z,30.27
2018-05-23T04:13:17.594Z,30.91
2018-05-23T04:15:45.153Z,31.48
2018-05-23T04:18:12.752Z,32.16
2018-05-23T04:20:40.299Z,32.67
2018-05-23T04:23:07.851Z,33.17
2018-05-23T04:25:35.553Z,33.67
2018-05-23T04:28:03.096Z,34.44
2018-05-23T04:30:30.748Z,34.86
2018-05-23T04:32:58.319Z,34.60
2018-05-23T04:35:25.869Z,34.91
2018-05-23T04:37:53.437Z,35.06
2018-05-23T04:40:21.037Z,36.37
2018-05-23T04:42:48.597Z,35.64
2018-05-23T04:45:16.165Z,36.19
2018-05-23T04:47:43.752Z,36.41
2018-05-23T04:50:11.402Z,36.25
2018-05-23T04:52:38.951Z,35.95
2018-05-23T04:55:06.689Z,36.50
2018-05-23T04:57:34.251Z,36.89
2018-05-23T05:00:01.809Z,36.75
2018-05-23T05:02:29.400Z,36.73
2018-05-23T05:04:56.997Z,37.14
2018-05-23T05:07:24.561Z,37.48
2018-05-23T05:09:52.141Z,37.01
2018-05-23T05:12:19.750Z,37.27
2018-05-23T05:14:47.292Z,36.24
2018-05-23T05:17:14.877Z,35.82
2018-05-23T05:19:42.432Z,34.49
2018-05-23T05:22:09.978Z,33.61
2018-05-23T05:24:37.654Z,32.59
2018-05-23T05:27:05.212Z,32.00
2018-05-23T05:29:32.753Z,31.38
2018-05-23T05:32:00.494Z,30.97
2018-05-23T05:34:29.040Z,30.63
2018-05-23T05:36:56.613Z,30.02
2018-05-23T05:39:24.418Z,29.52
2018-05-23T05:41:51.968Z,29.32
2018-05-23T05:44:19.523Z,29.38
2018-05-23T05:46:47.131Z,29.85
2018-05-23T05:49:14.696Z,29.69
2018-05-23T05:51:42.269Z,29.72
2018-05-23T05:54:10.152Z,29.59
2018-05-23T05:56:37.695Z,29.75
2018-05-23T05:59:05.258Z,29.03
2018-05-23T06:01:33.168Z,29.12
2018-05-23T06:04:00.719Z,28.68
2018-05-23T06:06:28.266Z,28.82
2018-05-23T06:08:55.841Z,28.66
2018-05-23T06:11:23.425Z,28.49
2018-05-23T06:13:50.971Z,27.97
2018-05-23T06:16:18.554Z,27.87
2018-05-23T06:18:46.114Z,28.02
2018-05-23T06:21:13.675Z,27.74
2018-05-23T06:23:41.261Z,27.97
2018-05-23T06:26:08.840Z,27.81
2018-05-23T06:28:36.398Z,27.57
2018-05-23T06:31:04.061Z,27.34
2018-05-23T06:33:31.629Z,26.76
2018-05-23T06:35:59.193Z,26.66
2018-05-23T06:38:26.789Z,26.30
2018-05-23T06:40:54.361Z,25.82
2018-05-23T06:43:21.926Z,25.75
2018-05-23T06:45:49.520Z,25.97
2018-05-23T06:48:17.080Z,25.53
2018-05-23T06:50:44.641Z,25.67
2018-05-23T06:53:12.386Z,25.88
2018-05-23T06:55:39.924Z,26.51
2018-05-23T06:58:07.482Z,26.87
2018-05-23T07:00:35.064Z,26.39
2018-05-23T07:03:02.620Z,25.88
2018-05-23T07:05:30.187Z,25.60
2018-05-23T07:07:57.773Z,25.72
2018-05-23T07:10:25.333Z,26.21
2018-05-23T07:12:52.879Z,26.03
2018-05-23T07:15:20.457Z,26.05
2018-05-23T07:17:48.044Z,25.64
2018-05-23T07:20:15.610Z,25.74
2018-05-23T07:22:43.350Z,25.84
2018-05-23T07:25:10.923Z,25.43
2018-05-23T07:27:38.475Z,24.81
2018-05-23T07:30:06.335Z,24.85
2018-05-23T07:32:33.881Z,25.08
2018-05-23T07:35:01.430Z,25.35
2018-05-23T07:37:29.028Z,25.48
2018-05-23T07:39:56.592Z,25.41
2018-05-23T07:42:24.133Z,25.24
2018-05-23T07:44:51.723Z,25.05
2018-05-23T07:47:19.276Z,24.65
2018-05-23T07:49:46.827Z,24.42
2018-05-23T07:52:14.411Z,24.21
2018-05-23T07:54:41.961Z,24.11
2018-05-23T07:57:09.552Z,24.41
2018-05-23T07:59:37.117Z,24.59
2018-05-23T08:02:04.679Z,24.75
2018-05-23T08:04:32.268Z,24.96
2018-05-23T08:07:00.208Z,24.98
2018-05-23T08:09:27.762Z,24.52
2018-05-23T08:11:55.363Z,24.77
2018-05-23T08:14:22.938Z,24.42
2018-05-23T08:16:50.504Z,24.61
2018-05-23T08:19:18.086Z,24.37
2018-05-23T08:21:45.639Z,24.55
2018-05-23T08:24:13.188Z,24.65
2018-05-23T08:26:40.792Z,24.47
2018-05-23T08:29:08.346Z,24.52
2018-05-23T08:31:35.998Z,24.40
2018-05-23T08:34:03.927Z,24.41
2018-05-23T08:36:31.555Z,24.36
2018-05-23T08:38:59.093Z,24.65
2018-05-23T08:41:26.771Z,24.90
2018-05-23T08:43:54.333Z,25.14
2018-05-23T08:46:21.892Z,25.36
2018-05-23T08:48:49.573Z,25.26
2018-05-23T08:51:17.124Z,25.60
2018-05-23T08:53:44.672Z,25.82
2018-05-23T08:56:12.352Z,25.55
2018-05-23T08:58:39.900Z,25.72
2018-05-23T09:01:07.461Z,25.65
2018-05-23T09:03:35.149Z,25.08
2018-05-23T09:06:02.696Z,25.30
2018-05-23T09:08:30.248Z,25.32
2018-05-23T09:10:57.997Z,25.08
2018-05-23T09:13:25.566Z,24.97
2018-05-23T09:15:53.113Z,24.89
2018-05-23T09:18:20.806Z,24.97
2018-05-23T09:20:48.350Z,25.05
2018-05-23T09:23:15.904Z,24.92
2018-05-23T09:25:43.653Z,24.74
2018-05-23T09:28:11.207Z,24.77
2018-05-23T09:30:38.757Z,24.55
2018-05-23T09:33:06.487Z,24.61
2018-05-23T09:35:34.050Z,24.56
2018-05-23T09:38:01.592Z,24.83
2018-05-23T09:40:29.172Z,24.88
2018-05-23T09:42:56.729Z,25.08
2018-05-23T09:45:24.280Z,25.13
2018-05-23T09:47:51.870Z,25.07
2018-05-23T09:50:19.432Z,25.45
2018-05-23T09:52:46.979Z,25.68
2018-05-23T09:55:14.683Z,25.74
2018-05-23T09:57:42.243Z,26.08
2018-05-23T10:00:09.835Z,26.08
2018-05-23T10:02:37.419Z,26.67
2018-05-23T10:05:04.972Z,26.58
2018-05-23T10:07:32.530Z,26.59
2018-05-23T10:10:00.146Z,26.39
2018-05-23T10:12:27.686Z,26.22
2018-05-23T10:14:55.964Z,26.18
2018-05-23T10:17:23.884Z,26.59
2018-05-23T10:19:51.436Z,26.43
2018-05-23T10:22:19.001Z,26.43
2018-05-23T10:24:46.587Z,26.09
2018-05-23T10:27:14.146Z,26.03
2018-05-23T10:29:41.697Z,26.26
2018-05-23T10:32:09.278Z,26.23
2018-05-23T10:34:36.837Z,25.92
2018-05-23T10:37:04.394Z,25.59
2018-05-23T10:39:32.084Z,25.78
2018-05-23T10:41:59.670Z,25.60
2018-05-23T10:44:27.245Z,25.72
2018-05-23T10:46:54.996Z,25.63
2018-05-23T10:49:22.549Z,25.62
2018-05-23T10:51:50.098Z,25.54
2018-05-23T10:54:17.663Z,25.67
2018-05-23T10:56:45.215Z,25.60
2018-05-23T10:59:12.764Z,26.03
2018-05-23T11:01:40.366Z,26.30
2018-05-23T11:04:07.920Z,26.47
2018-05-23T11:06:35.522Z,26.41
2018-05-23T11:09:03.238Z,26.52
2018-05-23T11:11:30.754Z,26.36
2018-05-23T11:13:58.320Z,26.17
2018-05-23T11:16:26.087Z,26.17
2018-05-23T11:18:53.640Z,25.98
2018-05-23T11:21:21.235Z,26.01
2018-05-23T11:23:48.811Z,25.82
2018-05-23T11:26:16.357Z,25.22
2018-05-23T11:28:43.908Z,25.35
2018-05-23T11:31:11.507Z,25.54
2018-05-23T11:33:39.054Z,25.62
2018-05-23T11:36:06.614Z,25.79
2018-05-23T11:38:34.296Z,25.53
2018-05-23T11:41:01.858Z,25.43
2018-05-23T11:43:29.399Z,24.97
2018-05-23T11:45:57.088Z,24.80
2018-05-23T11:48:24.652Z,24.92
2018-05-23T11:50:52.209Z,24.95
2018-05-23T11:53:19.794Z,24.95
2018-05-23T11:55:47.339Z,24.94
2018-05-23T11:58:14.888Z,24.97
2018-05-23T12:00:42.497Z,24.83
2018-05-23T12:03:10.066Z,24.96
2018-05-23T12:05:37.612Z,24.87
2018-05-23T12:08:05.205Z,24.72
2018-05-23T12:10:32.802Z,24.74
2018-05-23T12:13:00.355Z,24.75
2018-05-23T12:15:28.061Z,24.78
2018-05-23T12:17:55.622Z,24.53
2018-05-23T12:20:23.196Z,24.46
2018-05-23T12:22:50.795Z,24.37
2018-05-23T12:25:18.373Z,24.21
2018-05-23T12:27:45.930Z,24.28
2018-05-23T12:30:13.519Z,24.42
2018-05-23T12:32:41.073Z,24.48
2018-05-23T12:35:08.616Z,24.32
2018-05-23T12:37:36.208Z,24.25
2018-05-23T12:40:03.791Z,24.22
2018-05-23T12:42:31.332Z,24.13
2018-05-23T12:44:59.059Z,24.19
2018-05-23T12:47:26.609Z,24.10
2018-05-23T12:49:54.171Z,24.09
2018-05-23T12:52:21.769Z,23.99
2018-05-23T12:54:49.325Z,23.90
2018-05-23T12:57:16.875Z,23.67
2018-05-23T12:59:44.458Z,23.53
2018-05-23T13:02:12.008Z,23.62
2018-05-23T13:04:39.741Z,23.64
2018-05-23T13:07:07.279Z,23.45
2018-05-23T13:09:34.834Z,23.55
2018-05-23T13:12:02.531Z,23.53
2018-05-23T13:14:30.077Z,23.74
2018-05-23T13:16:57.621Z,23.75
2018-05-23T13:19:25.319Z,23.57
2018-05-23T13:21:52.882Z,23.61
2018-05-23T13:24:20.434Z,23.55
2018-05-23T13:26:48.122Z,23.39
2018-05-23T13:29:15.668Z,23.42
2018-05-23T13:31:43.219Z,23.49
2018-05-23T13:34:10.902Z,23.42
2018-05-23T13:36:38.449Z,23.35
2018-05-23T13:39:06.027Z,23.21
2018-05-23T13:41:33.622Z,23.20
2018-05-23T13:44:01.171Z,23.20
2018-05-23T13:46:28.776Z,23.09
2018-05-23T13:48:56.383Z,22.88
2018-05-23T13:51:23.920Z,22.81
2018-05-23T13:53:51.473Z,22.76
2018-05-23T13:56:19.326Z,22.70
2018-05-23T13:58:46.878Z,22.69
2018-05-23T14:01:14.425Z,22.61
2018-05-23T14:03:42.014Z,22.70
2018-05-23T14:06:09.563Z,22.70
2018-05-23T14:08:37.121Z,22.65
2018-05-23T14:11:04.860Z,22.67
2018-05-23T14:13:32.404Z,22.47
2018-05-23T14:15:59.967Z,22.50
2018-05-23T14:18:27.557Z,22.41
2018-05-23T14:20:55.212Z,22.34
2018-05-23T14:23:22.725Z,22.23
2018-05-23T14:25:50.487Z,22.02
2018-05-23T14:28:18.048Z,21.90
2018-05-23T14:30:45.608Z,21.85
2018-05-23T14:33:13.346Z,21.86
2018-05-23T14:35:40.896Z,21.68
2018-05-23T14:38:08.476Z,21.65
2018-05-23T14:40:36.088Z,21.61
2018-05-23T14:43:03.635Z,21.66
2018-05-23T14:45:31.185Z,21.63
2018-05-23T14:47:59.120Z,21.55
2018-05-23T14:50:26.678Z,21.53
2018-05-23T14:52:54.234Z,21.43
2018-05-23T14:55:21.988Z,21.36
2018-05-23T14:57:49.543Z,21.24
2018-05-23T15:00:17.092Z,21.13
2018-05-23T15:02:44.680Z,21.16
2018-05-23T15:05:12.241Z,21.08
2018-05-23T15:07:39.792Z,21.01
2018-05-23T15:10:07.531Z,20.99
2018-05-23T15:12:35.077Z,20.94
2018-05-23T15:15:02.625Z,20.90
2018-05-23T15:17:30.322Z,20.88
2018-05-23T15:19:57.982Z,20.82
2018-05-23T15:22:25.466Z,20.86
2018-05-23T15:24:53.199Z,20.96
2018-05-23T15:27:20.863Z,20.97
2018-05-23T15:29:48.358Z,21.07
2018-05-23T15:32:15.950Z,20.95
2018-05-23T15:34:43.492Z,20.82
2018-05-23T15:37:11.064Z,20.81
2018-05-23T15:39:38.643Z,20.79
2018-05-23T15:42:06.216Z,20.75
2018-05-23T15:44:33.764Z,20.77
2018-05-23T15:47:01.452Z,20.74
2018-05-23T15:49:29.029Z,20.74
2018-05-23T15:51:56.586Z,20.71
2018-05-23T15:54:24.497Z,20.72
2018-05-23T15:56:53.287Z,20.77
2018-05-23T15:59:20.841Z,20.75
2018-05-23T16:01:48.469Z,20.82
2018-05-23T16:04:16.058Z,20.78
2018-05-23T16:06:43.609Z,20.63
2018-05-23T16:09:11.297Z,20.67
2018-05-23T16:11:38.852Z,20.65
2018-05-23T16:14:06.412Z,20.75
2018-05-23T16:16:33.989Z,20.76
2018-05-23T16:19:01.564Z,20.74
2018-05-23T16:21:29.123Z,20.76
2018-05-23T16:23:57.035Z,20.72
2018-05-23T16:26:24.604Z,20.83
2018-05-23T16:28:52.640Z,20.83
2018-05-23T16:31:20.386Z,20.85
2018-05-23T16:33:47.956Z,20.81
2018-05-23T16:36:15.492Z,20.78
2018-05-23T16:38:43.183Z,20.84
2018-05-23T16:41:10.773Z,20.86
2018-05-23T16:43:38.315Z,20.92
2018-05-23T16:46:06.078Z,20.84
2018-05-23T16:48:33.631Z,20.75
2018-05-23T16:51:01.178Z,20.74
2018-05-23T16:53:28.761Z,20.71
2018-05-23T16:55:56.338Z,20.69
2018-05-23T16:58:23.911Z,20.72
2018-05-23T17:00:51.501Z,20.70
2018-05-23T17:03:19.049Z,20.62
2018-05-23T17:05:46.962Z,20.48
2018-05-23T17:08:14.544Z,20.40
2018-05-23T17:10:42.105Z,20.30
2018-05-23T17:13:10.000Z,20.22
2018-05-23T17:15:37.575Z,20.15
2018-05-23T17:18:05.152Z,20.05
2018-05-23T17:20:32.765Z,19.96
2018-05-23T17:23:00.338Z,19.89
2018-05-23T17:25:27.887Z,19.81
2018-05-23T17:27:55.612Z,19.75
2018-05-23T17:30:23.173Z,19.69
2018-05-23T17:32:50.718Z,19.64
2018-05-23T17:35:18.332Z,19.60
2018-05-23T17:37:45.902Z,19.54
2018-05-23T17:40:13.529Z,19.42
2018-05-23T17:42:41.196Z,19.29
2018-05-23T17:45:08.793Z,19.34
2018-05-23T17:47:36.357Z,19.20
2018-05-23T17:50:04.083Z,19.18
2018-05-23T17:52:31.648Z,19.14
2018-05-23T17:54:59.260Z,19.09
2018-05-23T17:57:26.945Z,19.09
2018-05-23T17:59:54.496Z,19.06
2018-05-23T18:02:22.058Z,19.03
2018-05-23T18:04:49.669Z,18.94
2018-05-23T18:07:17.279Z,18.94
2018-05-23T18:09:44.838Z,18.92
2018-05-23T18:12:12.444Z,18.83
2018-05-23T18:14:40.021Z,18.80
2018-05-23T18:17:07.585Z,18.78
2018-05-23T18:19:35.178Z,18.77
2018-05-23T18:22:02.723Z,18.70
2018-05-23T18:24:30.271Z,18.63
2018-05-23T18:26:58.047Z,18.59
2018-05-23T18:29:25.692Z,18.61
2018-05-23T18:31:53.214Z,18.62
2018-05-23T18:34:20.798Z,18.56
2018-05-23T18:36:48.353Z,18.55
2018-05-23T18:39:15.923Z,18.56
2018-05-23T18:41:43.533Z,18.55
2018-05-23T18:44:11.097Z,18.54
2018-05-23T18:46:38.667Z,18.50
2018-05-23T18:49:06.243Z,18.40
2018-05-23T18:51:33.805Z,18.30
2018-05-23T18:54:01.370Z,18.27
2018-05-23T18:56:29.092Z,18.34
2018-05-23T18:58:56.645Z,18.24
2018-05-23T19:01:24.209Z,18.28
2018-05-23T19:03:51.975Z,18.22
2018-05-23T19:06:19.527Z,18.16
2018-05-23T19:08:47.064Z,18.10
2018-05-23T19:11:14.641Z,18.08
2018-05-23T19:13:42.208Z,18.00
2018-05-23T19:16:09.761Z,17.95
2018-05-23T19:18:37.367Z,17.98
2018-05-23T19:21:04.967Z,17.98
2018-05-23T19:23:32.541Z,17.98
2018-05-23T19:26:00.159Z,17.95
2018-05-23T19:28:27.708Z,18.01
2018-05-23T19:30:55.266Z,17.97
2018-05-23T19:33:22.913Z,17.99
2018-05-23T19:35:50.476Z,17.97
2018-05-23T19:38:18.014Z,18.02
2018-05-23T19:40:45.589Z,17.96
2018-05-23T19:43:13.161Z,17.77
2018-05-23T19:45:40.715Z,17.66
2018-05-23T19:48:08.348Z,17.54
2018-05-23T19:50:35.896Z,17.50
2018-05-23T19:53:03.456Z,17.50
2018-05-23T19:55:31.044Z,17.46
2018-05-23T19:57:58.631Z,17.45
2018-05-23T20:00:26.229Z,17.44
2018-05-23T20:02:54.306Z,17.36
2018-05-23T20:05:21.867Z,17.34
2018-05-23T20:07:49.410Z,17.40
2018-05-23T20:10:17.037Z,17.36
2018-05-23T20:12:44.602Z,17.37
2018-05-23T20:15:12.144Z,17.33
2018-05-23T20:17:39.896Z,17.19
2018-05-23T20:20:07.469Z,17.10
2018-05-23T20:22:35.023Z,17.11
2018-05-23T20:25:02.848Z,17.12
2018-05-23T20:27:30.412Z,17.15
2018-05-23T20:29:57.974Z,17.07
2018-05-23T20:32:25.747Z,17.05
2018-05-23T20:34:53.361Z,17.06
2018-05-23T20:37:20.945Z,17.03
2018-05-23T20:39:48.525Z,17.03
2018-05-23T20:42:16.084Z,17.01
2018-05-23T20:44:43.652Z,17.05
2018-05-23T20:47:11.239Z,17.09
2018-05-23T20:49:38.845Z,17.14
2018-05-23T20:52:06.429Z,17.23
2018-05-23T20:54:34.178Z,17.24
2018-05-23T20:57:01.740Z,17.23
2018-05-23T20:59:29.285Z,17.14
2018-05-23T21:01:56.868Z,17.14
2018-05-23T21:04:26.343Z,17.15
2018-05-23T21:06:53.901Z,17.17
2018-05-23T21:09:21.607Z,17.13
2018-05-23T21:11:49.168Z,17.09
2018-05-23T21:14:16.725Z,17.09
2018-05-23T21:16:44.461Z,17.03
2018-05-23T21:19:12.021Z,17.05
2018-05-23T21:21:39.586Z,17.00
2018-05-23T21:24:07.181Z,17.05
2018-05-23T21:26:34.747Z,17.06
2018-05-23T21:29:02.292Z,17.07
2018-05-23T21:31:29.893Z,17.05
2018-05-23T21:33:57.447Z,17.00
2018-05-23T21:36:25.000Z,17.03
2018-05-23T21:38:52.744Z,17.06
2018-05-23T21:41:20.292Z,17.07
2018-05-23T21:43:47.857Z,17.04
2018-05-23T21:46:15.456Z,17.05
2018-05-23T21:48:43.076Z,17.07
2018-05-23T21:51:11.140Z,17.10
2018-05-23T21:53:39.063Z,17.11
2018-05-23T21:56:06.617Z,17.08
2018-05-23T21:58:34.164Z,17.09
2018-05-23T22:01:01.723Z,17.10
2018-05-23T22:03:29.275Z,17.10
2018-05-23T22:05:56.966Z,17.11
2018-05-23T22:08:24.556Z,17.10
2018-05-23T22:10:52.121Z,17.08
2018-05-23T22:13:19.693Z,17.05
2018-05-23T22:15:47.241Z,17.06
2018-05-23T22:18:14.814Z,17.06
2018-05-23T22:20:42.418Z,17.07
2018-05-23T22:23:09.977Z,17.03
2018-05-23T22:25:37.523Z,16.98
2018-05-23T22:28:05.261Z,17.04
2018-05-23T22:30:32.883Z,17.11
2018-05-23T22:33:00.388Z,17.17
2018-05-23T22:35:27.964Z,17.24
2018-05-23T22:37:55.510Z,17.27
2018-05-23T22:40:23.088Z,17.30
2018-05-23T22:42:50.693Z,17.39
2018-05-23T22:45:18.253Z,17.46
2018-05-23T22:47:45.801Z,17.38
2018-05-23T22:50:13.378Z,17.47
2018-05-23T22:52:40.932Z,17.49
2018-05-23T22:55:08.509Z,17.52
2018-05-23T22:57:36.089Z,17.60
2018-05-23T23:00:03.651Z,17.60
2018-05-23T23:02:31.204Z,17.50
2018-05-23T23:04:58.792Z,17.47
2018-05-23T23:07:26.360Z,17.46
2018-05-23T23:09:53.913Z,17.50
2018-05-23T23:12:21.477Z,17.54
2018-05-23T23:14:49.016Z,17.55
2018-05-23T23:17:16.568Z,17.53
2018-05-23T23:19:44.326Z,17.55
2018-05-23T23:22:23.615Z,17.59
2018-05-23T23:24:51.328Z,17.63
2018-05-23T23:27:18.877Z,17.60
2018-05-23T23:29:46.483Z,17.61
2018-05-23T23:32:14.093Z,17.65
2018-05-23T23:34:41.637Z,17.64
2018-05-23T23:37:09.187Z,17.62
2018-05-23T23:39:36.772Z,17.64
2018-05-23T23:42:04.318Z,17.61
2018-05-23T23:44:31.873Z,17.61
2018-05-23T23:46:59.779Z,17.54
2018-05-23T23:49:27.342Z,17.53
2018-05-23T23:51:54.875Z,17.47
2018-05-23T23:54:22.596Z,17.44
2018-05-23T23:56:50.135Z,17.38
2018-05-23T23:59:17.679Z,17.36
